Orbital elements of SL-8 DEB
| Launched | 14 March 1965 |
| Flight ended | – |
| Launch site | Tyuratam Missile and Space Center, Kazakhstan (Also known as Baikonur Cosmodrome) |
| Owner | Commonwealth of Independent States (former USSR) |
| NORAD ID | 13517 |
| Date fetched |
Epoch osculation |
Inc. [°] |
Ecc. | RA asc node [hr] |
Arg Peri. [°] |
Mean anom [°] |
Mean motion [rev/day] |
Abs. mag |
| Date fetched |
Epoch osculation |
Inc. [°] |
Ecc. | RA asc node [hr] |
Arg Peri. [°] |
Mean anom [°] |
Mean motion [rev/day] |
Abs. mag |
| 2026 May 05 17:57 | 2026 May 04 22:49:01 | 55.5667 | 0.05249 | 6.3380 | 59.8933 | 339.6443 | 13.43876 | – |
| 2026 May 04 17:57 | 2026 Apr 30 08:36:49 | 55.5662 | 0.05246 | 7.3340 | 52.0222 | 339.6443 | 13.43876 | – |
| 2026 May 03 17:57 | 2026 Apr 30 08:36:49 | 55.5662 | 0.05246 | 7.3340 | 52.0222 | 339.6443 | 13.43876 | – |
| 2026 May 02 17:57 | 2026 Apr 30 08:36:49 | 55.5662 | 0.05246 | 7.3340 | 52.0222 | 339.6443 | 13.43876 | – |
| 2026 May 01 17:56 | 2026 Apr 30 08:36:49 | 55.5662 | 0.05246 | 7.3340 | 52.0222 | 339.6443 | 13.43876 | – |
| 2026 Apr 30 17:56 | 2026 Apr 30 08:36:49 | 55.5662 | 0.05246 | 7.3340 | 52.0222 | 339.6443 | 13.43876 | – |
| 2026 Apr 29 17:57 | 2026 Apr 24 02:09:57 | 55.5657 | 0.05242 | 8.6937 | 41.2858 | 339.6443 | 13.43876 | – |
| 2026 Apr 28 17:56 | 2026 Apr 24 02:09:57 | 55.5657 | 0.05242 | 8.6937 | 41.2858 | 339.6443 | 13.43876 | – |
| 2026 Apr 27 17:58 | 2026 Apr 24 02:09:57 | 55.5657 | 0.05242 | 8.6937 | 41.2858 | 339.6443 | 13.43876 | – |
| 2026 Apr 26 17:58 | 2026 Apr 24 02:09:57 | 55.5657 | 0.05242 | 8.6937 | 41.2858 | 339.6443 | 13.43876 | – |
| 2026 Apr 25 17:58 | 2026 Apr 24 02:09:57 | 55.5657 | 0.05242 | 8.6937 | 41.2858 | 339.6443 | 13.43876 | – |
| 2026 Apr 24 17:59 | 2026 Apr 24 02:09:57 | 55.5657 | 0.05242 | 8.6937 | 41.2858 | 339.6443 | 13.43876 | – |
| 2026 Apr 23 17:57 | 2026 Apr 18 03:19:30 | 55.5666 | 0.05239 | 9.9846 | 31.0978 | 339.6443 | 13.43876 | – |
| 2026 Apr 22 17:57 | 2026 Apr 18 03:19:30 | 55.5666 | 0.05239 | 9.9846 | 31.0978 | 339.6443 | 13.43876 | – |
| 2026 Apr 21 17:57 | 2026 Apr 18 03:19:30 | 55.5666 | 0.05239 | 9.9846 | 31.0978 | 339.6443 | 13.43876 | – |
| 2026 Apr 20 17:57 | 2026 Apr 18 03:19:30 | 55.5666 | 0.05239 | 9.9846 | 31.0978 | 339.6443 | 13.43876 | – |
| 2026 Apr 19 17:58 | 2026 Apr 18 03:19:30 | 55.5666 | 0.05239 | 9.9846 | 31.0978 | 339.6443 | 13.43876 | – |
| 2026 Apr 18 17:56 | 2026 Apr 12 10:05:35 | 55.5672 | 0.05237 | 11.2247 | 21.3179 | 339.6443 | 13.43876 | – |
| 2026 Apr 16 17:57 | 2026 Apr 12 10:05:35 | 55.5672 | 0.05237 | 11.2247 | 21.3179 | 339.6443 | 13.43876 | – |
| 2026 Apr 14 17:57 | 2026 Apr 12 10:05:35 | 55.5672 | 0.05237 | 11.2247 | 21.3179 | 339.6443 | 13.43876 | – |
| 2026 Apr 13 17:57 | 2026 Apr 12 10:05:35 | 55.5672 | 0.05237 | 11.2247 | 21.3179 | 339.6443 | 13.43876 | – |
| 2026 Apr 12 17:57 | 2026 Apr 08 15:19:47 | 55.5678 | 0.05235 | 12.0449 | 14.8484 | 339.6443 | 13.43876 | – |
| 2026 Apr 11 17:57 | 2026 Apr 08 15:19:47 | 55.5678 | 0.05235 | 12.0449 | 14.8484 | 339.6443 | 13.43876 | – |
| 2026 Apr 10 17:58 | 2026 Apr 08 15:19:47 | 55.5678 | 0.05235 | 12.0449 | 14.8484 | 339.6443 | 13.43876 | – |
| 2026 Apr 09 18:01 | 2026 Apr 08 15:19:47 | 55.5678 | 0.05235 | 12.0449 | 14.8484 | 339.6443 | 13.43876 | – |
| 2026 Apr 08 17:57 | 2026 Apr 08 15:19:47 | 55.5678 | 0.05235 | 12.0449 | 14.8484 | 339.6443 | 13.43876 | – |